Terminal Aerodrome Forecast
Issued by NWS

Home | Current Version | Previous Version | Text Only | Print | Product List | Glossary On
Versions: 1 2 3 4 5 6 7 8 9 10 11 12 13 14 15 16 17 18 19 20 21 22 23 24 25 26 27 28 29 30 31 32 33 34 35 36 37 38 39
000
FTUS41 KALY 191208 AAA
TAFPSF
TAF AMD
KPSF 191208Z 1912/2012 32003KT 4SM -SN BR SCT025 OVC040
      TEMPO 1912/1914 2SM -SN BR BKN025 OVC040
     FM191400 32006KT P6SM VCSH OVC030
      TEMPO 1918/1921 3SM -RASN BR OVC025
     FM192300 29012KT P6SM VCSH OVC050=

USA.gov is the U.S. government's official web portal to all federal, state and local government web resources and services.